createdAt,value
2018-02-09T00:00:09.120Z,99.90
2018-02-09T00:02:36.563Z,99.90
2018-02-09T00:05:04.031Z,99.90
2018-02-09T00:07:31.465Z,99.90
2018-02-09T00:09:58.936Z,99.90
2018-02-09T00:12:26.422Z,99.90
2018-02-09T00:14:53.981Z,99.90
2018-02-09T00:17:21.424Z,99.90
2018-02-09T00:19:48.875Z,99.90
2018-02-09T00:22:16.380Z,99.90
2018-02-09T00:24:43.819Z,99.90
2018-02-09T00:27:11.396Z,99.90
2018-02-09T00:29:38.848Z,99.90
2018-02-09T00:32:06.316Z,99.90
2018-02-09T00:34:33.792Z,99.90
2018-02-09T00:37:01.331Z,99.90
2018-02-09T00:39:28.895Z,99.90
2018-02-09T00:41:56.348Z,99.90
2018-02-09T00:44:23.775Z,99.90
2018-02-09T00:46:51.235Z,99.90
2018-02-09T00:49:19.452Z,99.90
2018-02-09T00:51:46.891Z,99.90
2018-02-09T00:54:14.339Z,99.90
2018-02-09T00:56:41.787Z,99.90
2018-02-09T00:59:10.419Z,99.90
2018-02-09T01:01:37.904Z,99.90
2018-02-09T01:04:05.359Z,99.90
2018-02-09T01:06:32.828Z,99.90
2018-02-09T01:09:00.293Z,99.90
2018-02-09T01:11:27.727Z,99.90
2018-02-09T01:13:55.168Z,99.90
2018-02-09T01:16:22.667Z,99.90
2018-02-09T01:18:50.127Z,99.90
2018-02-09T01:21:17.570Z,99.90
2018-02-09T01:23:45.863Z,99.90
2018-02-09T01:26:13.308Z,99.90
2018-02-09T01:28:40.786Z,99.90
2018-02-09T01:31:08.248Z,99.90
2018-02-09T01:33:35.700Z,99.90
2018-02-09T01:36:03.143Z,99.90
2018-02-09T01:38:30.635Z,99.90
2018-02-09T01:40:58.072Z,99.90
2018-02-09T01:43:25.527Z,99.90
2018-02-09T01:45:53.044Z,99.90
2018-02-09T01:48:20.488Z,99.90
2018-02-09T01:50:47.930Z,99.90
2018-02-09T01:53:15.381Z,99.90
2018-02-09T01:55:42.828Z,99.90
2018-02-09T01:58:10.327Z,99.90
2018-02-09T02:00:37.783Z,99.90
2018-02-09T02:03:05.230Z,99.90
2018-02-09T02:05:32.716Z,99.90
2018-02-09T02:08:00.175Z,99.90
2018-02-09T02:10:27.731Z,99.90
2018-02-09T02:12:55.194Z,99.90
2018-02-09T02:15:22.648Z,99.90
2018-02-09T02:17:50.099Z,99.90
2018-02-09T02:20:17.551Z,99.90
2018-02-09T02:22:45.040Z,99.90
2018-02-09T02:25:12.491Z,99.90
2018-02-09T02:27:39.935Z,99.90
2018-02-09T02:30:07.441Z,99.90
2018-02-09T02:32:34.887Z,99.90
2018-02-09T02:35:02.348Z,99.90
2018-02-09T02:37:29.812Z,99.90
2018-02-09T02:39:57.267Z,99.90
2018-02-09T02:42:24.735Z,99.90
2018-02-09T02:44:52.179Z,99.90
2018-02-09T02:47:19.625Z,99.90
2018-02-09T02:49:47.071Z,99.90
2018-02-09T02:52:14.573Z,99.90
2018-02-09T02:54:42.041Z,99.90
2018-02-09T02:57:09.499Z,99.90
2018-02-09T02:59:36.939Z,99.90
2018-02-09T03:02:04.379Z,99.90
2018-02-09T03:04:31.817Z,99.90
2018-02-09T03:07:00.039Z,99.90
2018-02-09T03:09:27.524Z,99.90
2018-02-09T03:11:54.975Z,99.90
2018-02-09T03:14:22.415Z,99.90
2018-02-09T03:16:49.912Z,99.90
2018-02-09T03:19:17.443Z,99.90
2018-02-09T03:21:44.866Z,99.90
2018-02-09T03:24:13.083Z,99.90
2018-02-09T03:26:40.519Z,99.90
2018-02-09T03:29:08.823Z,99.90
2018-02-09T03:31:36.243Z,99.90
2018-02-09T03:34:03.707Z,99.90
2018-02-09T03:36:31.135Z,99.90
2018-02-09T03:38:58.700Z,99.90
2018-02-09T03:41:26.160Z,99.90
2018-02-09T03:43:53.604Z,99.90
2018-02-09T03:46:21.051Z,99.90
2018-02-09T03:48:48.491Z,99.90
2018-02-09T03:51:16.380Z,99.90
2018-02-09T03:53:43.875Z,99.90
2018-02-09T03:56:11.322Z,99.90
2018-02-09T03:58:38.768Z,99.90
2018-02-09T04:01:06.255Z,99.90
2018-02-09T04:03:33.715Z,99.90
2018-02-09T04:06:01.159Z,99.90
2018-02-09T04:08:28.612Z,99.90
2018-02-09T04:10:56.063Z,99.90
2018-02-09T04:13:23.498Z,99.90
2018-02-09T04:15:50.948Z,99.90
2018-02-09T04:18:18.439Z,99.90
2018-02-09T04:20:46.654Z,99.90
2018-02-09T04:23:14.103Z,99.90
2018-02-09T04:25:41.563Z,99.90
2018-02-09T04:28:08.987Z,99.90
2018-02-09T04:30:37.203Z,99.90
2018-02-09T04:33:04.696Z,99.90
2018-02-09T04:35:32.251Z,99.90
2018-02-09T04:37:59.693Z,99.90
2018-02-09T04:40:27.172Z,99.90
2018-02-09T04:42:54.814Z,99.90
2018-02-09T04:45:22.247Z,99.90
2018-02-09T04:47:50.475Z,99.90
2018-02-09T04:50:17.939Z,99.90
2018-02-09T04:52:45.411Z,99.90
2018-02-09T04:55:12.891Z,99.90
2018-02-09T04:57:40.343Z,99.90
2018-02-09T05:00:07.824Z,99.90
2018-02-09T05:02:36.067Z,99.90
2018-02-09T05:05:03.580Z,99.90
2018-02-09T05:07:30.979Z,99.90
2018-02-09T05:09:58.424Z,99.90
2018-02-09T05:12:25.911Z,99.90
2018-02-09T05:14:53.359Z,99.90
2018-02-09T05:17:20.830Z,99.90
2018-02-09T05:19:48.271Z,99.90
2018-02-09T05:22:15.723Z,99.90
2018-02-09T05:24:43.251Z,99.90
2018-02-09T05:27:10.676Z,99.90
2018-02-09T05:29:38.120Z,99.90
2018-02-09T05:32:05.563Z,99.90
2018-02-09T05:34:33.011Z,99.90
2018-02-09T05:37:01.216Z,99.90
2018-02-09T05:39:28.779Z,99.90
2018-02-09T05:41:56.204Z,99.90
2018-02-09T05:44:24.440Z,99.90
2018-02-09T05:46:51.887Z,99.90
2018-02-09T05:49:19.381Z,99.90
2018-02-09T05:51:46.831Z,99.90
2018-02-09T05:54:14.279Z,99.90
2018-02-09T05:56:41.855Z,99.90
2018-02-09T05:59:09.716Z,99.90
2018-02-09T06:01:37.188Z,99.90
2018-02-09T06:04:04.655Z,99.90
2018-02-09T06:06:32.111Z,99.90
2018-02-09T06:08:59.567Z,99.90
2018-02-09T06:11:27.011Z,99.90
2018-02-09T06:13:54.539Z,99.90
2018-02-09T06:16:22.764Z,99.90
2018-02-09T06:18:50.207Z,99.90
2018-02-09T06:21:17.671Z,99.90
2018-02-09T06:23:45.131Z,99.90
2018-02-09T06:26:12.619Z,99.90
2018-02-09T06:28:40.063Z,99.90
2018-02-09T06:31:07.543Z,99.90
2018-02-09T06:33:34.979Z,99.90
2018-02-09T06:36:02.423Z,99.90
2018-02-09T06:38:29.867Z,99.90
2018-02-09T06:40:58.096Z,99.90
2018-02-09T06:43:25.541Z,99.90
2018-02-09T06:45:52.987Z,99.90
2018-02-09T06:48:20.427Z,99.90
2018-02-09T06:50:48.631Z,99.90
2018-02-09T06:53:16.131Z,99.90
2018-02-09T06:55:43.571Z,99.90
2018-02-09T06:58:11.032Z,99.90
2018-02-09T07:00:38.511Z,99.90
2018-02-09T07:03:05.964Z,99.90
2018-02-09T07:05:33.439Z,99.90
2018-02-09T07:08:00.891Z,99.90
2018-02-09T07:10:28.360Z,99.90
2018-02-09T07:12:56.916Z,99.90
2018-02-09T07:15:24.340Z,99.90
2018-02-09T07:17:51.967Z,99.90
2018-02-09T07:20:19.429Z,99.90
2018-02-09T07:22:46.884Z,99.90
2018-02-09T07:25:14.319Z,99.90
2018-02-09T07:27:41.776Z,99.90
2018-02-09T07:30:09.992Z,99.90
2018-02-09T07:32:37.703Z,99.90
2018-02-09T07:35:05.915Z,99.90
2018-02-09T07:37:33.364Z,99.90
2018-02-09T07:40:00.863Z,99.90
2018-02-09T07:42:28.301Z,99.90
2018-02-09T07:44:55.791Z,99.90
2018-02-09T07:47:23.244Z,99.90
2018-02-09T07:49:50.696Z,99.90
2018-02-09T07:52:18.147Z,99.90
2018-02-09T07:54:45.632Z,99.90
2018-02-09T07:57:13.088Z,99.90
2018-02-09T07:59:40.608Z,99.90
2018-02-09T08:02:08.812Z,99.90
2018-02-09T08:04:36.264Z,99.90
2018-02-09T08:07:03.712Z,99.90
2018-02-09T08:09:31.156Z,99.90
2018-02-09T08:11:59.402Z,99.90
2018-02-09T08:14:26.827Z,99.90
2018-02-09T08:16:54.276Z,99.90
2018-02-09T08:19:22.471Z,99.90
2018-02-09T08:21:49.911Z,99.90
2018-02-09T08:24:17.365Z,99.90
2018-02-09T08:26:45.577Z,99.90
2018-02-09T08:29:13.060Z,99.90
2018-02-09T08:31:40.511Z,99.90
2018-02-09T08:34:07.978Z,99.90
2018-02-09T08:36:35.427Z,99.90
2018-02-09T08:39:02.864Z,99.90
2018-02-09T08:41:30.363Z,99.90
2018-02-09T08:43:57.803Z,99.90
2018-02-09T08:46:25.259Z,99.90
2018-02-09T08:48:52.743Z,99.90
2018-02-09T08:51:20.208Z,99.90
2018-02-09T08:53:47.652Z,99.90
2018-02-09T08:56:15.103Z,99.90
2018-02-09T08:58:42.532Z,99.90
2018-02-09T09:01:11.780Z,99.90
2018-02-09T09:03:39.224Z,99.90
2018-02-09T09:06:06.718Z,99.90
2018-02-09T09:08:34.163Z,99.90
2018-02-09T09:11:01.620Z,99.90
2018-02-09T09:13:29.073Z,99.90
2018-02-09T09:15:56.497Z,99.90
2018-02-09T09:18:24.814Z,99.90
2018-02-09T09:20:52.231Z,99.90
2018-02-09T09:23:19.684Z,99.90
2018-02-09T09:25:47.115Z,99.90
2018-02-09T09:28:14.564Z,99.90
2018-02-09T09:30:41.993Z,99.90
2018-02-09T09:33:10.201Z,99.90
2018-02-09T09:35:37.688Z,99.90
2018-02-09T09:38:05.119Z,99.90
2018-02-09T09:40:32.568Z,99.90
2018-02-09T09:43:00.009Z,99.90
2018-02-09T09:45:28.224Z,99.90
2018-02-09T09:47:55.656Z,99.90
2018-02-09T09:50:23.871Z,99.90
2018-02-09T09:52:51.344Z,99.90
2018-02-09T09:55:18.792Z,99.90
2018-02-09T09:57:46.276Z,99.90
2018-02-09T10:00:13.787Z,99.90
2018-02-09T10:02:41.224Z,99.90
2018-02-09T10:05:08.675Z,99.90
2018-02-09T10:07:36.111Z,99.90
2018-02-09T10:10:03.548Z,99.90
2018-02-09T10:12:30.995Z,99.90
2018-02-09T10:14:58.432Z,99.90
2018-02-09T10:17:25.872Z,99.90
2018-02-09T10:19:53.325Z,99.90
2018-02-09T10:22:20.774Z,99.90
2018-02-09T10:24:48.214Z,99.90
2018-02-09T10:27:15.698Z,99.90
2018-02-09T10:29:43.137Z,99.90
2018-02-09T10:32:10.594Z,99.90
2018-02-09T10:34:38.082Z,99.90
2018-02-09T10:37:05.527Z,99.90
2018-02-09T10:39:33.008Z,99.90
2018-02-09T10:42:00.477Z,99.90
2018-02-09T10:44:28.031Z,99.90
2018-02-09T10:46:55.500Z,99.90
2018-02-09T10:49:22.935Z,99.90
2018-02-09T10:51:50.498Z,99.90
2018-02-09T10:54:17.919Z,99.90
2018-02-09T10:56:46.155Z,99.90
2018-02-09T10:59:13.596Z,99.90
2018-02-09T11:01:41.027Z,99.90
2018-02-09T11:04:09.240Z,99.90
2018-02-09T11:06:36.698Z,99.90
2018-02-09T11:09:04.135Z,99.90
2018-02-09T11:11:32.338Z,98.10
2018-02-09T11:13:59.789Z,98.10
2018-02-09T11:16:27.223Z,98.20
2018-02-09T11:18:55.465Z,96.20
2018-02-09T11:21:22.900Z,96.20
2018-02-09T11:23:50.339Z,95.10
2018-02-09T11:26:17.819Z,77.30
2018-02-09T11:28:45.312Z,66.40
2018-02-09T11:31:12.820Z,55.00
2018-02-09T11:33:41.045Z,41.90
2018-02-09T11:36:08.540Z,41.80
2018-02-09T11:38:35.966Z,40.00
2018-02-09T11:41:03.437Z,37.70
2018-02-09T11:43:30.886Z,36.70
2018-02-09T11:45:58.346Z,36.50
2018-02-09T11:48:25.894Z,34.20
2018-02-09T11:50:53.377Z,35.40
2018-02-09T11:53:20.867Z,36.10
2018-02-09T11:55:48.323Z,36.70
2018-02-09T11:58:15.764Z,35.70
2018-02-09T12:00:43.230Z,33.70
2018-02-09T12:03:10.687Z,33.10
2018-02-09T12:05:38.138Z,34.20
2018-02-09T12:08:05.580Z,34.70
2018-02-09T12:10:33.071Z,32.90
2018-02-09T12:13:00.506Z,33.30
2018-02-09T12:15:27.964Z,33.40
2018-02-09T12:17:55.399Z,33.20
2018-02-09T12:20:23.624Z,33.10
2018-02-09T12:22:51.093Z,33.00
2018-02-09T12:25:18.551Z,31.60
2018-02-09T12:27:46.044Z,32.20
2018-02-09T12:30:13.477Z,31.80
2018-02-09T12:32:40.935Z,32.90
2018-02-09T12:35:08.384Z,32.70
2018-02-09T12:37:35.837Z,31.30
2018-02-09T12:40:03.275Z,31.20
2018-02-09T12:42:31.602Z,33.40
2018-02-09T12:44:59.051Z,33.40
2018-02-09T12:47:26.519Z,33.30
2018-02-09T12:49:53.959Z,34.10
2018-02-09T12:52:21.451Z,34.90
2018-02-09T12:54:48.907Z,35.90
2018-02-09T12:57:16.371Z,35.10
2018-02-09T12:59:43.830Z,34.50
2018-02-09T13:02:11.284Z,33.30
2018-02-09T13:04:38.779Z,34.80
2018-02-09T13:07:06.234Z,34.20
2018-02-09T13:09:33.682Z,35.80
2018-02-09T13:12:01.136Z,37.40
2018-02-09T13:14:40.511Z,38.10
2018-02-09T13:17:08.831Z,44.40
2018-02-09T13:19:36.271Z,44.30
2018-02-09T13:22:04.480Z,43.20
2018-02-09T13:24:31.961Z,43.10
2018-02-09T13:26:59.416Z,41.10
2018-02-09T13:29:26.863Z,39.90
2018-02-09T13:31:54.302Z,39.80
2018-02-09T13:34:21.804Z,39.60
2018-02-09T13:39:42.023Z,43.10
2018-02-09T13:42:09.568Z,42.20
2018-02-09T13:44:37.040Z,42.90
2018-02-09T13:47:04.492Z,41.20
2018-02-09T13:49:31.949Z,41.10
2018-02-09T13:51:59.387Z,40.90
2018-02-09T13:54:26.843Z,40.00
2018-02-09T13:56:54.340Z,39.20
2018-02-09T13:59:21.993Z,38.90
2018-02-09T14:01:49.427Z,38.70
2018-02-09T14:04:16.940Z,39.50
2018-02-09T14:06:44.379Z,41.60
2018-02-09T14:09:11.839Z,42.80
2018-02-09T14:11:39.282Z,42.90
2018-02-09T14:14:06.908Z,45.20
2018-02-09T14:16:35.250Z,47.70
2018-02-09T14:19:04.041Z,47.70
2018-02-09T14:21:31.572Z,48.80
2018-02-09T14:23:59.007Z,50.10
2018-02-09T14:26:27.236Z,49.00
2018-02-09T14:28:54.670Z,49.00
2018-02-09T14:31:22.171Z,49.00
2018-02-09T14:33:49.760Z,48.50
2018-02-09T14:36:17.210Z,49.50
2018-02-09T14:38:44.732Z,50.90
2018-02-09T14:41:12.164Z,51.20
2018-02-09T14:43:40.436Z,53.10
2018-02-09T14:46:07.879Z,53.00
2018-02-09T14:48:35.316Z,54.30
2018-02-09T14:51:02.765Z,56.10
2018-02-09T14:53:30.294Z,56.10
2018-02-09T14:55:58.551Z,57.60
2018-02-09T14:58:25.967Z,57.60
2018-02-09T15:00:53.387Z,58.90
2018-02-09T15:03:21.624Z,61.20
2018-02-09T15:05:49.079Z,61.20
2018-02-09T15:08:16.544Z,62.90
2018-02-09T15:10:44.031Z,64.10
2018-02-09T15:13:11.543Z,65.60
2018-02-09T15:15:39.005Z,66.60
2018-02-09T15:18:06.491Z,68.00
2018-02-09T15:20:33.955Z,69.10
2018-02-09T15:23:01.403Z,70.40
2018-02-09T15:25:28.843Z,73.00
2018-02-09T15:27:56.342Z,74.90
2018-02-09T15:30:23.776Z,78.20
2018-02-09T15:32:51.207Z,80.60
2018-02-09T15:35:19.436Z,84.60
2018-02-09T15:37:46.875Z,84.60
2018-02-09T15:40:14.356Z,90.20
2018-02-09T15:42:41.796Z,92.70
2018-02-09T15:45:09.245Z,94.90
2018-02-09T15:47:36.747Z,95.00
2018-02-09T15:50:04.191Z,96.10
2018-02-09T15:52:31.626Z,97.40
2018-02-09T15:54:59.093Z,97.10
2018-02-09T15:57:26.587Z,96.90
2018-02-09T15:59:54.059Z,97.00
2018-02-09T16:02:21.520Z,97.50
2018-02-09T16:04:48.959Z,98.20
2018-02-09T16:07:17.360Z,98.70
2018-02-09T16:09:44.874Z,99.30
2018-02-09T16:12:12.279Z,99.80
2018-02-09T16:14:39.743Z,99.90
2018-02-09T16:17:07.239Z,99.90
2018-02-09T16:19:34.769Z,99.90
2018-02-09T16:22:02.211Z,99.90
2018-02-09T16:24:29.651Z,99.90
2018-02-09T16:26:57.927Z,99.90
2018-02-09T16:29:26.124Z,99.90
2018-02-09T16:31:53.663Z,99.90
2018-02-09T16:34:21.060Z,99.90
2018-02-09T16:36:48.532Z,99.90
2018-02-09T16:39:15.971Z,99.90
2018-02-09T16:41:43.429Z,99.90
2018-02-09T16:44:10.855Z,99.90
2018-02-09T16:46:39.071Z,99.90
2018-02-09T16:49:06.559Z,99.90
2018-02-09T16:51:34.019Z,99.90
2018-02-09T16:54:01.483Z,99.90
2018-02-09T16:56:28.961Z,99.90
2018-02-09T16:58:56.379Z,99.90
2018-02-09T17:01:23.839Z,99.90
2018-02-09T17:03:51.291Z,99.90
2018-02-09T17:06:18.788Z,99.90
2018-02-09T17:08:46.229Z,99.90
2018-02-09T17:11:13.662Z,99.90
2018-02-09T17:13:41.115Z,99.90
2018-02-09T17:16:09.353Z,99.90
2018-02-09T17:18:36.830Z,99.90
2018-02-09T17:21:04.265Z,99.90
2018-02-09T17:23:31.707Z,99.90
2018-02-09T17:25:59.153Z,99.90
2018-02-09T17:28:27.348Z,99.90
2018-02-09T17:30:54.783Z,99.90
2018-02-09T17:33:23.024Z,99.90
2018-02-09T17:35:50.463Z,99.90
2018-02-09T17:38:17.936Z,99.90
2018-02-09T17:40:45.391Z,99.90
2018-02-09T17:43:12.841Z,99.90
2018-02-09T17:45:40.293Z,99.90
2018-02-09T17:48:07.772Z,99.90
2018-02-09T17:50:35.236Z,99.90
2018-02-09T17:53:02.679Z,99.90
2018-02-09T17:55:30.278Z,99.90
2018-02-09T17:57:57.667Z,99.90
2018-02-09T18:00:25.876Z,99.90
2018-02-09T18:02:53.307Z,99.90
2018-02-09T18:05:21.539Z,99.90
2018-02-09T18:07:49.036Z,99.90
2018-02-09T18:10:16.694Z,99.90
2018-02-09T18:12:44.247Z,99.90
2018-02-09T18:15:11.704Z,99.90
2018-02-09T18:17:39.147Z,99.90
2018-02-09T18:20:06.591Z,99.90
2018-02-09T18:22:34.360Z,99.90
2018-02-09T18:25:01.848Z,99.90
2018-02-09T18:27:29.287Z,99.90
2018-02-09T18:29:56.751Z,99.90
2018-02-09T18:32:24.235Z,99.90
2018-02-09T18:34:51.680Z,99.90
2018-02-09T18:37:19.147Z,99.90
2018-02-09T18:39:46.590Z,99.90
2018-02-09T18:42:14.051Z,99.90
2018-02-09T18:44:41.816Z,99.90
2018-02-09T18:47:09.251Z,99.90
2018-02-09T18:49:38.033Z,99.90
2018-02-09T18:52:05.703Z,99.90
2018-02-09T18:54:33.949Z,99.90
2018-02-09T18:57:01.392Z,99.90
2018-02-09T18:59:28.819Z,99.90
2018-02-09T19:01:57.588Z,99.90
2018-02-09T19:04:25.653Z,99.90
2018-02-09T19:06:53.257Z,99.90
2018-02-09T19:09:20.699Z,99.90
2018-02-09T19:11:49.051Z,99.90
2018-02-09T19:14:16.512Z,99.90
2018-02-09T19:16:44.168Z,99.90
2018-02-09T19:19:11.622Z,99.90
2018-02-09T19:21:39.063Z,99.90
2018-02-09T19:24:06.513Z,99.90
2018-02-09T19:26:35.135Z,99.90
2018-02-09T19:29:02.587Z,99.90
2018-02-09T19:31:30.056Z,99.90
2018-02-09T19:33:57.649Z,99.90
2018-02-09T19:36:25.079Z,99.90
2018-02-09T19:38:52.619Z,99.90
2018-02-09T19:41:20.107Z,99.90
2018-02-09T19:43:47.600Z,99.90
2018-02-09T19:46:15.042Z,99.90
2018-02-09T19:48:42.529Z,99.90
2018-02-09T19:51:09.979Z,99.90
2018-02-09T19:53:37.436Z,99.90
2018-02-09T19:56:05.011Z,99.90
2018-02-09T19:58:32.435Z,99.90
2018-02-09T20:01:00.081Z,99.90
2018-02-09T20:03:27.681Z,99.90
2018-02-09T20:05:55.127Z,99.90
2018-02-09T20:08:22.647Z,99.90
2018-02-09T20:10:50.863Z,99.90
2018-02-09T20:13:18.511Z,99.90
2018-02-09T20:15:45.975Z,99.90
2018-02-09T20:18:13.479Z,99.90
2018-02-09T20:20:41.024Z,99.90
2018-02-09T20:23:08.516Z,99.90
2018-02-09T20:25:35.950Z,99.90
2018-02-09T20:28:03.383Z,99.90
2018-02-09T20:30:30.914Z,99.90
2018-02-09T20:32:59.145Z,99.90
2018-02-09T20:35:26.558Z,99.90
2018-02-09T20:37:54.790Z,99.90
2018-02-09T20:40:22.223Z,99.90
2018-02-09T20:42:49.790Z,99.90
2018-02-09T20:45:17.212Z,99.90
2018-02-09T20:47:45.452Z,99.90
2018-02-09T20:50:12.915Z,99.90
2018-02-09T20:52:40.363Z,99.90
2018-02-09T20:55:07.839Z,99.90
2018-02-09T20:57:35.305Z,99.90
2018-02-09T21:00:02.939Z,99.90
2018-02-09T21:02:30.372Z,99.90
2018-02-09T21:04:58.599Z,99.90
2018-02-09T21:07:26.055Z,99.90
2018-02-09T21:09:53.487Z,99.90
2018-02-09T21:12:20.935Z,99.90
2018-02-09T21:14:49.269Z,99.90
2018-02-09T21:17:16.717Z,99.90
2018-02-09T21:19:44.136Z,99.90
2018-02-09T21:22:12.368Z,99.90
2018-02-09T21:24:39.800Z,99.90
2018-02-09T21:27:07.264Z,99.90
2018-02-09T21:29:34.716Z,99.90
2018-02-09T21:32:03.008Z,99.90
2018-02-09T21:34:30.503Z,99.90
2018-02-09T21:36:57.955Z,99.90
2018-02-09T21:39:25.493Z,99.90
2018-02-09T21:41:52.937Z,99.90
2018-02-09T21:44:21.164Z,99.90
2018-02-09T21:46:48.713Z,99.90
2018-02-09T21:49:16.151Z,99.90
2018-02-09T21:51:43.643Z,99.90
2018-02-09T21:54:11.124Z,99.90
2018-02-09T21:56:38.648Z,99.90
2018-02-09T21:59:06.136Z,99.90
2018-02-09T22:01:33.612Z,99.90
2018-02-09T22:04:01.050Z,99.90
2018-02-09T22:06:28.518Z,99.90
2018-02-09T22:08:55.983Z,99.90
2018-02-09T22:11:23.439Z,99.90
2018-02-09T22:13:50.978Z,99.90
2018-02-09T22:16:18.542Z,99.90
2018-02-09T22:18:45.988Z,99.90
2018-02-09T22:21:14.199Z,99.90
2018-02-09T22:23:41.676Z,99.90
2018-02-09T22:26:09.121Z,99.90
2018-02-09T22:28:36.564Z,99.90
2018-02-09T22:31:04.025Z,99.90
2018-02-09T22:33:31.494Z,99.90
2018-02-09T22:35:59.079Z,99.90
2018-02-09T22:38:26.543Z,99.90
2018-02-09T22:40:53.988Z,99.90
2018-02-09T22:43:21.463Z,99.90
2018-02-09T22:45:48.896Z,99.90
2018-02-09T22:48:16.462Z,99.90
2018-02-09T22:50:43.890Z,99.90
2018-02-09T22:53:11.412Z,99.90
2018-02-09T22:55:38.857Z,99.90
2018-02-09T22:58:06.331Z,99.90
2018-02-09T23:00:33.903Z,99.90
2018-02-09T23:03:01.372Z,99.90
2018-02-09T23:05:28.896Z,99.90
2018-02-09T23:07:56.339Z,99.90
2018-02-09T23:10:23.780Z,99.90
2018-02-09T23:12:51.232Z,99.90
2018-02-09T23:15:18.784Z,99.90
2018-02-09T23:17:46.227Z,99.90
2018-02-09T23:20:13.663Z,99.90
2018-02-09T23:22:41.152Z,99.90
2018-02-09T23:25:08.612Z,99.90
2018-02-09T23:27:36.044Z,99.90
2018-02-09T23:30:03.535Z,99.90
2018-02-09T23:32:30.995Z,99.90
2018-02-09T23:34:58.455Z,99.90
2018-02-09T23:37:25.889Z,99.90
2018-02-09T23:39:53.355Z,99.90
2018-02-09T23:42:20.816Z,99.90
2018-02-09T23:44:49.008Z,99.90
2018-02-09T23:47:16.441Z,99.90
2018-02-09T23:49:43.887Z,99.90
2018-02-09T23:52:12.198Z,99.90
2018-02-09T23:54:39.687Z,99.90
2018-02-09T23:57:07.175Z,99.90
2018-02-09T23:59:34.718Z,99.90
